sensor_id;sensor_type;location;lat;lon;timestamp;pressure;altitude;pressure_sealevel;temperature;humidity
55590;BME280;41452;42.780;23.116;2024-02-23T01:43:11;94039.31;;;6.12;100.00
55590;BME280;41452;42.780;23.116;2024-02-23T04:14:17;94034.56;;;5.95;100.00
55590;BME280;41452;42.780;23.116;2024-02-23T04:16:42;93957.59;;;5.54;100.00
55590;BME280;41452;42.780;23.116;2024-02-23T04:19:07;94006.91;;;5.87;100.00
55590;BME280;41452;42.780;23.116;2024-02-23T04:21:33;93983.03;;;5.52;100.00
55590;BME280;41452;42.780;23.116;2024-02-23T04:23:58;93953.28;;;5.34;100.00
55590;BME280;41452;42.780;23.116;2024-02-23T04:26:24;94043.97;;;6.03;100.00
55590;BME280;41452;42.780;23.116;2024-02-23T04:28:49;94042.75;;;6.05;100.00
55590;BME280;41452;42.780;23.116;2024-02-23T04:31:14;94011.53;;;5.92;100.00
55590;BME280;41452;42.780;23.116;2024-02-23T04:33:40;93995.31;;;5.83;100.00
55590;BME280;41452;42.780;23.116;2024-02-23T04:36:06;94043.72;;;6.11;100.00
55590;BME280;41452;42.780;23.116;2024-02-23T04:38:34;94047.13;;;6.12;100.00
55590;BME280;41452;42.780;23.116;2024-02-23T04:41:03;94033.38;;;5.91;100.00
55590;BME280;41452;42.780;23.116;2024-02-23T04:43:33;94018.97;;;5.88;100.00
55590;BME280;41452;42.780;23.116;2024-02-23T04:45:58;94036.97;;;5.97;100.00
55590;BME280;41452;42.780;23.116;2024-02-23T04:48:23;94053.75;;;6.07;100.00
55590;BME280;41452;42.780;23.116;2024-02-23T04:50:49;94051.03;;;5.96;100.00
55590;BME280;41452;42.780;23.116;2024-02-23T04:53:14;93993.03;;;5.62;100.00
55590;BME280;41452;42.780;23.116;2024-02-23T04:55:40;94059.81;;;6.01;100.00
55590;BME280;41452;42.780;23.116;2024-02-23T04:58:06;94057.03;;;5.89;100.00
55590;BME280;41452;42.780;23.116;2024-02-23T05:00:32;94045.22;;;5.87;100.00
55590;BME280;41452;42.780;23.116;2024-02-23T05:03:00;94065.84;;;5.95;100.00
55590;BME280;41452;42.780;23.116;2024-02-23T05:05:31;94022.47;;;5.69;100.00
55590;BME280;41452;42.780;23.116;2024-02-23T05:07:57;94040.69;;;5.76;100.00
55590;BME280;41452;42.780;23.116;2024-02-23T05:10:22;94055.06;;;5.85;100.00
55590;BME280;41452;42.780;23.116;2024-02-23T05:12:48;94056.25;;;5.82;100.00
55590;BME280;41452;42.780;23.116;2024-02-23T05:15:13;94056.31;;;5.76;100.00
55590;BME280;41452;42.780;23.116;2024-02-23T05:17:39;94035.91;;;5.59;100.00
55590;BME280;41452;42.780;23.116;2024-02-23T05:20:05;94072.09;;;5.81;100.00
55590;BME280;41452;42.780;23.116;2024-02-23T05:22:38;94060.97;;;5.60;100.00
55590;BME280;41452;42.780;23.116;2024-02-23T05:25:04;94034.16;;;5.53;100.00
55590;BME280;41452;42.780;23.116;2024-02-23T05:27:31;94046.75;;;5.56;100.00
55590;BME280;41452;42.780;23.116;2024-02-23T05:29:56;94059.94;;;5.61;100.00
55590;BME280;41452;42.780;23.116;2024-02-23T05:32:21;94047.38;;;5.51;100.00
55590;BME280;41452;42.780;23.116;2024-02-23T05:34:47;94054.78;;;5.55;100.00
55590;BME280;41452;42.780;23.116;2024-02-23T05:37:16;94042.75;;;5.53;100.00
55590;BME280;41452;42.780;23.116;2024-02-23T05:39:42;94073.16;;;5.66;100.00
55590;BME280;41452;42.780;23.116;2024-02-23T05:42:07;94078.38;;;5.66;100.00
55590;BME280;41452;42.780;23.116;2024-02-23T05:44:32;94068.38;;;5.63;100.00
55590;BME280;41452;42.780;23.116;2024-02-23T05:46:58;94071.16;;;5.68;100.00
55590;BME280;41452;42.780;23.116;2024-02-23T05:49:23;94078.16;;;5.75;100.00
55590;BME280;41452;42.780;23.116;2024-02-23T05:51:49;94078.34;;;5.80;100.00
55590;BME280;41452;42.780;23.116;2024-02-23T05:54:14;94080.75;;;5.81;100.00
55590;BME280;41452;42.780;23.116;2024-02-23T05:56:40;94047.94;;;5.60;100.00
55590;BME280;41452;42.780;23.116;2024-02-23T05:59:05;94075.44;;;5.95;100.00
55590;BME280;41452;42.780;23.116;2024-02-23T06:01:31;94071.16;;;5.68;100.00
55590;BME280;41452;42.780;23.116;2024-02-23T06:03:57;94076.69;;;5.92;100.00
55590;BME280;41452;42.780;23.116;2024-02-23T06:06:22;94077.88;;;6.03;100.00
55590;BME280;41452;42.780;23.116;2024-02-23T06:08:47;94054.59;;;5.95;100.00
55590;BME280;41452;42.780;23.116;2024-02-23T06:11:15;94054.03;;;5.99;100.00
55590;BME280;41452;42.780;23.116;2024-02-23T06:16:12;94045.00;;;5.95;100.00
55590;BME280;41452;42.780;23.116;2024-02-23T06:18:38;94043.31;;;6.07;100.00
55590;BME280;41452;42.780;23.116;2024-02-23T06:21:16;94038.13;;;6.07;100.00
55590;BME280;41452;42.780;23.116;2024-02-23T06:23:43;94086.56;;;6.54;100.00
55590;BME280;41452;42.780;23.116;2024-02-23T06:26:09;94081.69;;;6.64;100.00
55590;BME280;41452;42.780;23.116;2024-02-23T06:28:35;94083.13;;;6.60;100.00
55590;BME280;41452;42.780;23.116;2024-02-23T06:31:02;94072.28;;;6.63;100.00
55590;BME280;41452;42.780;23.116;2024-02-23T06:33:29;94085.34;;;6.88;100.00
55590;BME280;41452;42.780;23.116;2024-02-23T06:35:55;94051.34;;;6.70;100.00
55590;BME280;41452;42.780;23.116;2024-02-23T06:38:21;94101.09;;;7.00;100.00
55590;BME280;41452;42.780;23.116;2024-02-23T06:40:46;94099.25;;;7.07;100.00
55590;BME280;41452;42.780;23.116;2024-02-23T06:43:12;94102.00;;;7.12;100.00
55590;BME280;41452;42.780;23.116;2024-02-23T06:45:38;94086.03;;;7.02;100.00
55590;BME280;41452;42.780;23.116;2024-02-23T06:48:03;94066.00;;;6.96;100.00
55590;BME280;41452;42.780;23.116;2024-02-23T06:50:29;94103.78;;;7.37;100.00
55590;BME280;41452;42.780;23.116;2024-02-23T06:52:54;94103.31;;;7.47;99.71
55590;BME280;41452;42.780;23.116;2024-02-23T06:55:20;94040.03;;;7.01;99.14
55590;BME280;41452;42.780;23.116;2024-02-23T06:57:46;94061.25;;;7.30;99.18
55590;BME280;41452;42.780;23.116;2024-02-23T07:00:12;94088.84;;;7.44;99.37
55590;BME280;41452;42.780;23.116;2024-02-23T07:02:38;94113.97;;;7.64;98.67
55590;BME280;41452;42.780;23.116;2024-02-23T07:05:03;94072.59;;;7.42;97.89
55590;BME280;41452;42.780;23.116;2024-02-23T07:07:30;94079.56;;;7.48;98.66
55590;BME280;41452;42.780;23.116;2024-02-23T07:09:56;94062.28;;;7.47;98.61
55590;BME280;41452;42.780;23.116;2024-02-23T07:12:21;94014.97;;;7.37;98.08
55590;BME280;41452;42.780;23.116;2024-02-23T07:14:46;94062.13;;;7.79;96.94
55590;BME280;41452;42.780;23.116;2024-02-23T07:17:12;94089.84;;;7.98;96.22
55590;BME280;41452;42.780;23.116;2024-02-23T07:19:37;94099.28;;;8.18;95.67
55590;BME280;41452;42.780;23.116;2024-02-23T07:22:03;94073.72;;;8.02;96.18
55590;BME280;41452;42.780;23.116;2024-02-23T07:24:28;94090.16;;;8.21;95.49
55590;BME280;41452;42.780;23.116;2024-02-23T07:26:53;94082.25;;;8.27;95.08
55590;BME280;41452;42.780;23.116;2024-02-23T07:29:19;94104.88;;;8.52;95.28
55590;BME280;41452;42.780;23.116;2024-02-23T07:31:44;94106.16;;;8.61;94.46
55590;BME280;41452;42.780;23.116;2024-02-23T07:34:10;94084.75;;;8.52;92.57
55590;BME280;41452;42.780;23.116;2024-02-23T07:36:35;94086.22;;;8.48;92.88
55590;BME280;41452;42.780;23.116;2024-02-23T07:39:01;94082.63;;;8.73;92.85
55590;BME280;41452;42.780;23.116;2024-02-23T07:41:26;94040.06;;;8.35;92.74
55590;BME280;41452;42.780;23.116;2024-02-23T07:43:51;94092.44;;;8.78;91.92
55590;BME280;41452;42.780;23.116;2024-02-23T07:46:17;94074.13;;;8.78;92.65
55590;BME280;41452;42.780;23.116;2024-02-23T07:48:42;94060.22;;;8.77;92.36
55590;BME280;41452;42.780;23.116;2024-02-23T07:51:09;94072.75;;;8.99;90.41
55590;BME280;41452;42.780;23.116;2024-02-23T07:53:34;94073.78;;;9.09;90.24
55590;BME280;41452;42.780;23.116;2024-02-23T07:56:00;94020.97;;;8.89;90.33
55590;BME280;41452;42.780;23.116;2024-02-23T07:58:27;94087.25;;;9.25;89.09
55590;BME280;41452;42.780;23.116;2024-02-23T08:00:52;94014.69;;;8.90;89.02
55590;BME280;41452;42.780;23.116;2024-02-23T08:03:18;94056.84;;;9.24;88.97
55590;BME280;41452;42.780;23.116;2024-02-23T08:05:44;94055.59;;;9.38;87.41
55590;BME280;41452;42.780;23.116;2024-02-23T08:08:09;94070.03;;;9.41;89.61
55590;BME280;41452;42.780;23.116;2024-02-23T08:10:35;94088.25;;;9.59;88.16
55590;BME280;41452;42.780;23.116;2024-02-23T08:13:00;94084.84;;;9.59;86.79
55590;BME280;41452;42.780;23.116;2024-02-23T08:15:25;94079.81;;;9.69;86.68
55590;BME280;41452;42.780;23.116;2024-02-23T08:17:51;94084.13;;;9.75;85.62
55590;BME280;41452;42.780;23.116;2024-02-23T08:20:16;94101.19;;;10.01;85.44
55590;BME280;41452;42.780;23.116;2024-02-23T08:22:42;94085.56;;;9.95;85.36
55590;BME280;41452;42.780;23.116;2024-02-23T08:25:07;94095.34;;;10.11;85.36
55590;BME280;41452;42.780;23.116;2024-02-23T08:27:33;94103.22;;;10.11;84.92
55590;BME280;41452;42.780;23.116;2024-02-23T08:29:59;94077.47;;;9.96;83.72
55590;BME280;41452;42.780;23.116;2024-02-23T08:32:24;94097.34;;;10.33;83.65
55590;BME280;41452;42.780;23.116;2024-02-23T08:34:50;94102.47;;;10.39;83.79
55590;BME280;41452;42.780;23.116;2024-02-23T08:37:18;94096.25;;;10.45;84.36
55590;BME280;41452;42.780;23.116;2024-02-23T08:39:43;94103.53;;;10.55;83.92
55590;BME280;41452;42.780;23.116;2024-02-23T08:42:09;94051.22;;;10.25;83.61
55590;BME280;41452;42.780;23.116;2024-02-23T08:44:35;94063.97;;;10.45;83.29
55590;BME280;41452;42.780;23.116;2024-02-23T08:47:00;94086.28;;;10.59;82.42
55590;BME280;41452;42.780;23.116;2024-02-23T08:49:27;94093.00;;;10.84;82.44
55590;BME280;41452;42.780;23.116;2024-02-23T08:51:52;94065.53;;;10.75;80.75
55590;BME280;41452;42.780;23.116;2024-02-23T08:54:17;94088.84;;;10.88;81.26
55590;BME280;41452;42.780;23.116;2024-02-23T08:56:43;94048.56;;;10.65;80.70
55590;BME280;41452;42.780;23.116;2024-02-23T08:59:09;94063.69;;;10.92;80.17
55590;BME280;41452;42.780;23.116;2024-02-23T09:01:35;94096.25;;;11.25;80.21
55590;BME280;41452;42.780;23.116;2024-02-23T09:04:01;94076.50;;;11.22;80.90
55590;BME280;41452;42.780;23.116;2024-02-23T09:06:26;94064.72;;;11.25;79.33
55590;BME280;41452;42.780;23.116;2024-02-23T09:08:51;94071.00;;;11.41;77.68
55590;BME280;41452;42.780;23.116;2024-02-23T09:11:17;94082.94;;;11.49;78.37
55590;BME280;41452;42.780;23.116;2024-02-23T09:13:42;94066.38;;;11.31;77.34
55590;BME280;41452;42.780;23.116;2024-02-23T09:16:08;94024.13;;;11.16;77.65
55590;BME280;41452;42.780;23.116;2024-02-23T09:18:34;94058.53;;;11.53;76.82
55590;BME280;41452;42.780;23.116;2024-02-23T09:21:00;94060.94;;;11.55;76.42
55590;BME280;41452;42.780;23.116;2024-02-23T09:23:26;94075.88;;;11.71;77.06
55590;BME280;41452;42.780;23.116;2024-02-23T09:25:51;94075.13;;;11.76;75.64
55590;BME280;41452;42.780;23.116;2024-02-23T09:28:16;94069.22;;;11.86;75.69
55590;BME280;41452;42.780;23.116;2024-02-23T09:30:42;94073.16;;;12.05;76.38
55590;BME280;41452;42.780;23.116;2024-02-23T09:33:07;94065.44;;;11.98;76.74
55590;BME280;41452;42.780;23.116;2024-02-23T09:35:33;94090.66;;;12.16;75.69
55590;BME280;41452;42.780;23.116;2024-02-23T09:37:59;94059.38;;;11.98;75.60
55590;BME280;41452;42.780;23.116;2024-02-23T09:40:24;94061.50;;;12.23;76.38
55590;BME280;41452;42.780;23.116;2024-02-23T09:42:57;94057.13;;;12.07;74.21
55590;BME280;41452;42.780;23.116;2024-02-23T09:45:26;94063.06;;;11.97;74.03
55590;BME280;41452;42.780;23.116;2024-02-23T09:47:56;94081.53;;;12.02;74.75
55590;BME280;41452;42.780;23.116;2024-02-23T09:50:25;94069.44;;;12.01;73.38
55590;BME280;41452;42.780;23.116;2024-02-23T09:52:50;94055.75;;;12.04;73.79
55590;BME280;41452;42.780;23.116;2024-02-23T09:55:17;94073.44;;;12.31;73.97
55590;BME280;41452;42.780;23.116;2024-02-23T09:57:44;94065.53;;;12.31;74.11
55590;BME280;41452;42.780;23.116;2024-02-23T10:00:12;94079.34;;;12.43;73.22
55590;BME280;41452;42.780;23.116;2024-02-23T10:02:40;94075.50;;;12.51;71.00
55590;BME280;41452;42.780;23.116;2024-02-23T10:05:07;94074.44;;;12.52;73.83
55590;BME280;41452;42.780;23.116;2024-02-23T10:07:35;94071.59;;;12.31;72.26
55590;BME280;41452;42.780;23.116;2024-02-23T10:10:00;94081.31;;;12.31;71.79
55590;BME280;41452;42.780;23.116;2024-02-23T10:12:26;94047.13;;;12.09;71.38
55590;BME280;41452;42.780;23.116;2024-02-23T10:14:51;94049.88;;;12.19;71.77
55590;BME280;41452;42.780;23.116;2024-02-23T10:17:18;94069.88;;;12.42;72.42
55590;BME280;41452;42.780;23.116;2024-02-23T10:19:44;94073.53;;;12.41;72.46
55590;BME280;41452;42.780;23.116;2024-02-23T10:22:10;94073.44;;;12.31;72.43
55590;BME280;41452;42.780;23.116;2024-02-23T10:24:36;94064.44;;;12.27;72.74
55590;BME280;41452;42.780;23.116;2024-02-23T10:27:02;94060.72;;;12.23;73.69
55590;BME280;41452;42.780;23.116;2024-02-23T10:29:27;94044.81;;;12.12;72.58
55590;BME280;41452;42.780;23.116;2024-02-23T10:31:56;93984.47;;;11.84;72.63
55590;BME280;41452;42.780;23.116;2024-02-23T10:34:23;93990.19;;;11.97;72.36
55590;BME280;41452;42.780;23.116;2024-02-23T10:36:49;94013.34;;;12.23;71.76
55590;BME280;41452;42.780;23.116;2024-02-23T10:39:16;94012.31;;;12.29;72.22
55590;BME280;41452;42.780;23.116;2024-02-23T10:42:05;94042.97;;;12.67;71.72
55590;BME280;41452;42.780;23.116;2024-02-23T10:44:34;94031.28;;;12.85;71.99
55590;BME280;41452;42.780;23.116;2024-02-23T10:47:00;94005.53;;;12.98;69.53
55590;BME280;41452;42.780;23.116;2024-02-23T10:49:27;94027.25;;;13.10;69.31
55590;BME280;41452;42.780;23.116;2024-02-23T10:51:53;93997.63;;;12.98;68.46
55590;BME280;41452;42.780;23.116;2024-02-23T10:54:20;94026.38;;;12.99;68.79
55590;BME280;41452;42.780;23.116;2024-02-23T10:56:47;94018.50;;;13.04;70.01
55590;BME280;41452;42.780;23.116;2024-02-23T10:59:13;93949.41;;;12.65;69.17
55590;BME280;41452;42.780;23.116;2024-02-23T11:01:39;93940.34;;;12.83;68.88
55590;BME280;41452;42.780;23.116;2024-02-23T11:04:06;93967.13;;;13.12;67.78
55590;BME280;41452;42.780;23.116;2024-02-23T11:06:33;93935.16;;;12.98;67.50
55590;BME280;41452;42.780;23.116;2024-02-23T11:09:12;93964.59;;;13.27;67.52
55590;BME280;41452;42.780;23.116;2024-02-23T11:11:38;93966.22;;;13.34;66.17
55590;BME280;41452;42.780;23.116;2024-02-23T11:14:07;93980.09;;;13.61;68.06
55590;BME280;41452;42.780;23.116;2024-02-23T11:16:38;93938.53;;;13.31;67.27
55590;BME280;41452;42.780;23.116;2024-02-23T11:19:06;93978.25;;;13.67;66.67
55590;BME280;41452;42.780;23.116;2024-02-23T11:21:36;93956.84;;;13.58;64.69
55590;BME280;41452;42.780;23.116;2024-02-23T11:24:03;93979.59;;;13.75;66.46
55590;BME280;41452;42.780;23.116;2024-02-23T11:26:29;93944.72;;;13.62;63.24
55590;BME280;41452;42.780;23.116;2024-02-23T11:28:54;93940.53;;;13.66;65.24
55590;BME280;41452;42.780;23.116;2024-02-23T11:31:21;93964.34;;;13.92;65.55
55590;BME280;41452;42.780;23.116;2024-02-23T11:33:49;93937.69;;;13.88;65.19
55590;BME280;41452;42.780;23.116;2024-02-23T11:36:29;93962.78;;;14.01;64.16
55590;BME280;41452;42.780;23.116;2024-02-23T11:38:56;93936.88;;;13.88;64.55
55590;BME280;41452;42.780;23.116;2024-02-23T11:41:23;93958.56;;;14.16;64.70
55590;BME280;41452;42.780;23.116;2024-02-23T11:43:49;93914.97;;;13.93;64.00
55590;BME280;41452;42.780;23.116;2024-02-23T11:46:16;93960.16;;;14.06;64.47
55590;BME280;41452;42.780;23.116;2024-02-23T11:48:42;93939.56;;;14.14;63.08
55590;BME280;41452;42.780;23.116;2024-02-23T12:33:52;93847.94;;;13.99;60.91
55590;BME280;41452;42.780;23.116;2024-02-23T12:36:17;93903.66;;;14.38;60.53
55590;BME280;41452;42.780;23.116;2024-02-23T12:38:43;93891.00;;;14.40;60.55
55590;BME280;41452;42.780;23.116;2024-02-23T12:41:09;93905.53;;;14.43;60.35
55590;BME280;41452;42.780;23.116;2024-02-23T12:43:34;93897.06;;;14.31;61.24
55590;BME280;41452;42.780;23.116;2024-02-23T12:46:00;93903.66;;;14.38;59.90
55590;BME280;41452;42.780;23.116;2024-02-23T12:48:28;93911.59;;;14.43;58.25
55590;BME280;41452;42.780;23.116;2024-02-23T12:50:53;93873.56;;;14.39;57.07
55590;BME280;41452;42.780;23.116;2024-02-23T12:53:35;93888.88;;;14.42;55.74
55590;BME280;41452;42.780;23.116;2024-02-23T12:56:05;93890.47;;;14.43;56.42
55590;BME280;41452;42.780;23.116;2024-02-23T12:58:36;93898.41;;;14.54;56.56
55590;BME280;41452;42.780;23.116;2024-02-23T13:01:02;93902.13;;;14.58;54.81
55590;BME280;41452;42.780;23.116;2024-02-23T13:03:27;93879.38;;;14.47;53.76
55590;BME280;41452;42.780;23.116;2024-02-23T13:05:57;93866.44;;;14.40;54.92
55590;BME280;41452;42.780;23.116;2024-02-23T13:08:23;93878.81;;;14.55;54.02
55590;BME280;41452;42.780;23.116;2024-02-23T13:10:50;93890.75;;;14.62;55.40
55590;BME280;41452;42.780;23.116;2024-02-23T13:13:15;93885.97;;;14.54;55.21
55590;BME280;41452;42.780;23.116;2024-02-23T13:15:42;93884.13;;;14.50;54.70
55590;BME280;41452;42.780;23.116;2024-02-23T13:18:08;93895.22;;;14.41;53.66
55590;BME280;41452;42.780;23.116;2024-02-23T13:20:34;93883.06;;;14.51;54.61
55590;BME280;41452;42.780;23.116;2024-02-23T13:22:59;93858.75;;;14.54;53.55
55590;BME280;41452;42.780;23.116;2024-02-23T13:25:24;93907.38;;;14.73;52.84
55590;BME280;41452;42.780;23.116;2024-02-23T13:27:50;93897.34;;;14.60;53.20
55590;BME280;41452;42.780;23.116;2024-02-23T13:30:15;93878.03;;;14.44;53.07
55590;BME280;41452;42.780;23.116;2024-02-23T13:32:41;93879.38;;;14.52;53.52
55590;BME280;41452;42.780;23.116;2024-02-23T13:35:06;93911.91;;;14.62;53.77
55590;BME280;41452;42.780;23.116;2024-02-23T13:37:34;93883.06;;;14.45;52.66
55590;BME280;41452;42.780;23.116;2024-02-23T13:39:59;93893.63;;;14.56;54.72
55590;BME280;41452;42.780;23.116;2024-02-23T13:42:25;93850.31;;;14.47;52.68
55590;BME280;41452;42.780;23.116;2024-02-23T13:44:50;93884.66;;;14.57;51.97
55590;BME280;41452;42.780;23.116;2024-02-23T13:47:15;93877.00;;;14.50;52.20
55590;BME280;41452;42.780;23.116;2024-02-23T13:49:41;93892.31;;;14.48;52.42
55590;BME280;41452;42.780;23.116;2024-02-23T13:52:06;93888.63;;;14.29;52.87
55590;BME280;41452;42.780;23.116;2024-02-23T13:54:32;93875.13;;;14.40;54.33
55590;BME280;41452;42.780;23.116;2024-02-23T13:56:57;93904.47;;;14.54;51.96
55590;BME280;41452;42.780;23.116;2024-02-23T13:59:22;93888.91;;;14.58;52.32
55590;BME280;41452;42.780;23.116;2024-02-23T14:01:49;93908.69;;;14.76;51.99
55590;BME280;41452;42.780;23.116;2024-02-23T14:04:14;93907.91;;;14.65;51.89
55590;BME280;41452;42.780;23.116;2024-02-23T14:06:40;93901.03;;;14.38;52.08
55590;BME280;41452;42.780;23.116;2024-02-23T14:09:05;93906.09;;;14.60;53.12
55590;BME280;41452;42.780;23.116;2024-02-23T14:11:32;93889.94;;;14.36;52.86
55590;BME280;41452;42.780;23.116;2024-02-23T14:13:58;93859.31;;;14.10;50.79
55590;BME280;41452;42.780;23.116;2024-02-23T14:16:23;93911.06;;;14.41;51.32
55590;BME280;41452;42.780;23.116;2024-02-23T14:18:49;93903.16;;;14.41;50.47
55590;BME280;41452;42.780;23.116;2024-02-23T14:21:15;93902.88;;;14.33;51.91
55590;BME280;41452;42.780;23.116;2024-02-23T14:23:41;93908.19;;;14.43;51.77
55590;BME280;41452;42.780;23.116;2024-02-23T14:26:07;93882.00;;;14.31;51.74
55590;BME280;41452;42.780;23.116;2024-02-23T14:28:32;93881.75;;;14.27;52.87
55590;BME280;41452;42.780;23.116;2024-02-23T14:30:58;93864.59;;;14.10;50.61
55590;BME280;41452;42.780;23.116;2024-02-23T14:33:23;93887.56;;;14.14;51.96
55590;BME280;41452;42.780;23.116;2024-02-23T14:35:48;93852.41;;;13.83;50.82
55590;BME280;41452;42.780;23.116;2024-02-23T14:38:15;93896.78;;;14.06;50.59
55590;BME280;41452;42.780;23.116;2024-02-23T14:40:41;93885.94;;;13.98;52.47
55590;BME280;41452;42.780;23.116;2024-02-23T14:43:07;93902.59;;;14.19;50.74
55590;BME280;41452;42.780;23.116;2024-02-23T14:45:33;93875.13;;;13.94;52.44
55590;BME280;41452;42.780;23.116;2024-02-23T14:47:58;93876.19;;;13.93;50.91
55590;BME280;41452;42.780;23.116;2024-02-23T14:50:24;93887.81;;;13.97;51.50
55590;BME280;41452;42.780;23.116;2024-02-23T14:52:50;93903.66;;;13.97;50.11
55590;BME280;41452;42.780;23.116;2024-02-23T14:55:15;93890.94;;;13.79;51.21
55590;BME280;41452;42.780;23.116;2024-02-23T14:57:40;93903.63;;;13.92;51.54
55590;BME280;41452;42.780;23.116;2024-02-23T15:00:06;93910.22;;;14.00;51.46
55590;BME280;41452;42.780;23.116;2024-02-23T15:02:32;93893.03;;;13.82;50.68
55590;BME280;41452;42.780;23.116;2024-02-23T15:04:58;93910.72;;;13.76;53.96
55590;BME280;41452;42.780;23.116;2024-02-23T15:07:23;93899.38;;;13.76;51.90
55590;BME280;41452;42.780;23.116;2024-02-23T15:09:49;93919.72;;;13.91;51.93
55590;BME280;41452;42.780;23.116;2024-02-23T15:12:14;93906.22;;;13.77;52.20
55590;BME280;41452;42.780;23.116;2024-02-23T15:14:40;93889.31;;;13.62;53.05
55590;BME280;41452;42.780;23.116;2024-02-23T15:17:06;93919.16;;;13.73;52.54
55590;BME280;41452;42.780;23.116;2024-02-23T15:19:31;93927.31;;;13.61;52.71
55590;BME280;41452;42.780;23.116;2024-02-23T15:21:56;93903.19;;;13.32;51.29
55590;BME280;41452;42.780;23.116;2024-02-23T15:24:24;93830.97;;;12.80;51.86
55590;BME280;41452;42.780;23.116;2024-02-23T15:26:50;93864.06;;;13.13;51.88
55590;BME280;41452;42.780;23.116;2024-02-23T15:29:15;93902.94;;;13.34;52.37
55590;BME280;41452;42.780;23.116;2024-02-23T15:31:41;93916.38;;;13.32;51.92
55590;BME280;41452;42.780;23.116;2024-02-23T15:34:08;93866.84;;;12.91;52.27
55590;BME280;41452;42.780;23.116;2024-02-23T15:36:33;93899.13;;;13.14;51.81
55590;BME280;41452;42.780;23.116;2024-02-23T15:38:59;93915.03;;;13.29;52.41
55590;BME280;41452;42.780;23.116;2024-02-23T15:41:28;93930.94;;;13.40;52.64
55590;BME280;41452;42.780;23.116;2024-02-23T15:43:54;93911.81;;;13.22;52.83
55590;BME280;41452;42.780;23.116;2024-02-23T15:46:19;93930.09;;;13.34;53.84
55590;BME280;41452;42.780;23.116;2024-02-23T15:48:45;93927.44;;;13.34;54.13
55590;BME280;41452;42.780;23.116;2024-02-23T15:51:10;93913.41;;;13.18;54.87
55590;BME280;41452;42.780;23.116;2024-02-23T15:53:36;93928.72;;;13.26;54.62
55590;BME280;41452;42.780;23.116;2024-02-23T15:56:01;93883.69;;;12.85;55.31
55590;BME280;41452;42.780;23.116;2024-02-23T15:58:27;93928.66;;;13.16;55.49
55590;BME280;41452;42.780;23.116;2024-02-23T16:00:53;93895.88;;;12.97;55.57
55590;BME280;41452;42.780;23.116;2024-02-23T16:03:19;93926.03;;;13.16;55.83
55590;BME280;41452;42.780;23.116;2024-02-23T16:05:45;93930.44;;;13.05;57.95
55590;BME280;41452;42.780;23.116;2024-02-23T16:08:13;93924.00;;;12.86;59.83
55590;BME280;41452;42.780;23.116;2024-02-23T16:10:39;93914.25;;;12.81;60.15
55590;BME280;41452;42.780;23.116;2024-02-23T16:13:05;93918.94;;;12.74;61.58
55590;BME280;41452;42.780;23.116;2024-02-23T16:15:31;93924.34;;;12.57;63.53
55590;BME280;41452;42.780;23.116;2024-02-23T16:17:57;93915.03;;;12.44;63.77
55590;BME280;41452;42.780;23.116;2024-02-23T16:20:23;93912.31;;;12.34;64.31
55590;BME280;41452;42.780;23.116;2024-02-23T16:22:50;93914.47;;;12.37;64.79
55590;BME280;41452;42.780;23.116;2024-02-23T16:25:16;93906.91;;;12.18;65.75
55590;BME280;41452;42.780;23.116;2024-02-23T16:27:42;93888.88;;;12.00;65.87
55590;BME280;41452;42.780;23.116;2024-02-23T16:30:11;93940.41;;;12.23;67.03
55590;BME280;41452;42.780;23.116;2024-02-23T16:32:36;93904.13;;;11.98;66.29
55590;BME280;41452;42.780;23.116;2024-02-23T16:35:02;93927.09;;;12.08;66.98
55590;BME280;41452;42.780;23.116;2024-02-23T16:37:29;93917.69;;;11.90;67.17
55590;BME280;41452;42.780;23.116;2024-02-23T16:39:55;93925.91;;;11.93;67.53
55590;BME280;41452;42.780;23.116;2024-02-23T16:42:20;93909.69;;;12.02;66.95
55590;BME280;41452;42.780;23.116;2024-02-23T16:44:46;93938.97;;;12.10;67.74
55590;BME280;41452;42.780;23.116;2024-02-23T16:47:12;93923.63;;;12.02;67.53
55590;BME280;41452;42.780;23.116;2024-02-23T16:49:38;93938.94;;;12.05;68.01
55590;BME280;41452;42.780;23.116;2024-02-23T16:52:03;93944.94;;;12.01;68.57
55590;BME280;41452;42.780;23.116;2024-02-23T16:54:29;93949.88;;;11.97;68.88
55590;BME280;41452;42.780;23.116;2024-02-23T16:56:54;93877.81;;;11.49;68.62
55590;BME280;41452;42.780;23.116;2024-02-23T16:59:19;93943.66;;;11.81;69.18
55590;BME280;41452;42.780;23.116;2024-02-23T17:01:45;93895.75;;;11.52;69.76
55590;BME280;41452;42.780;23.116;2024-02-23T17:04:10;93978.28;;;11.95;70.38
55590;BME280;41452;42.780;23.116;2024-02-23T17:06:36;93949.66;;;11.54;70.42
55590;BME280;41452;42.780;23.116;2024-02-23T17:09:01;93936.13;;;11.40;71.47
55590;BME280;41452;42.780;23.116;2024-02-23T17:11:26;93962.09;;;11.59;71.39
55590;BME280;41452;42.780;23.116;2024-02-23T17:13:52;93924.66;;;11.30;71.61
55590;BME280;41452;42.780;23.116;2024-02-23T17:16:18;93907.59;;;11.10;72.03
55590;BME280;41452;42.780;23.116;2024-02-23T17:18:49;93951.22;;;11.28;72.53
55590;BME280;41452;42.780;23.116;2024-02-23T17:21:14;93975.66;;;11.51;72.27
55590;BME280;41452;42.780;23.116;2024-02-23T17:23:40;93959.22;;;11.38;72.83
55590;BME280;41452;42.780;23.116;2024-02-23T17:26:05;94003.69;;;11.62;72.50
55590;BME280;41452;42.780;23.116;2024-02-23T17:28:30;93961.59;;;11.40;72.35
55590;BME280;41452;42.780;23.116;2024-02-23T17:30:56;93967.22;;;11.49;71.66
55590;BME280;41452;42.780;23.116;2024-02-23T17:33:21;94007.31;;;11.78;72.07
55590;BME280;41452;42.780;23.116;2024-02-23T17:35:47;93978.50;;;11.44;72.65
55590;BME280;41452;42.780;23.116;2024-02-23T17:38:12;93976.41;;;11.46;72.23
55590;BME280;41452;42.780;23.116;2024-02-23T17:40:38;94002.25;;;11.54;72.78